sensor_id;sensor_type;location;lat;lon;timestamp;P1;durP1;ratioP1;P2;durP2;ratioP2
18738;SDS011;9498;51.862;19.460;2023-01-10T00:01:25;82.65;;;33.60;;
18738;SDS011;9498;51.862;19.460;2023-01-10T00:03:53;67.63;;;27.83;;
18738;SDS011;9498;51.862;19.460;2023-01-10T00:06:20;67.80;;;27.37;;
18738;SDS011;9498;51.862;19.460;2023-01-10T00:08:47;66.10;;;25.83;;
18738;SDS011;9498;51.862;19.460;2023-01-10T00:11:14;61.37;;;25.10;;
18738;SDS011;9498;51.862;19.460;2023-01-10T00:14:01;61.97;;;24.30;;
18738;SDS011;9498;51.862;19.460;2023-01-10T00:16:28;64.70;;;24.97;;
18738;SDS011;9498;51.862;19.460;2023-01-10T00:18:55;63.07;;;26.30;;
18738;SDS011;9498;51.862;19.460;2023-01-10T00:21:23;62.53;;;25.53;;
18738;SDS011;9498;51.862;19.460;2023-01-10T00:23:51;59.77;;;25.60;;
18738;SDS011;9498;51.862;19.460;2023-01-10T00:26:18;58.67;;;23.43;;
18738;SDS011;9498;51.862;19.460;2023-01-10T00:28:46;54.80;;;22.83;;
18738;SDS011;9498;51.862;19.460;2023-01-10T00:31:14;63.63;;;24.23;;
18738;SDS011;9498;51.862;19.460;2023-01-10T00:33:42;56.37;;;23.03;;
18738;SDS011;9498;51.862;19.460;2023-01-10T00:36:10;62.30;;;23.93;;
18738;SDS011;9498;51.862;19.460;2023-01-10T00:38:37;58.00;;;24.30;;
18738;SDS011;9498;51.862;19.460;2023-01-10T00:41:05;55.17;;;23.60;;
18738;SDS011;9498;51.862;19.460;2023-01-10T00:43:53;56.70;;;23.00;;
18738;SDS011;9498;51.862;19.460;2023-01-10T00:46:24;54.30;;;22.20;;
18738;SDS011;9498;51.862;19.460;2023-01-10T00:48:51;60.93;;;24.73;;
18738;SDS011;9498;51.862;19.460;2023-01-10T00:51:19;53.80;;;22.27;;
18738;SDS011;9498;51.862;19.460;2023-01-10T00:53:46;63.90;;;25.40;;
18738;SDS011;9498;51.862;19.460;2023-01-10T00:56:13;63.93;;;25.07;;
18738;SDS011;9498;51.862;19.460;2023-01-10T00:58:40;67.97;;;27.27;;
18738;SDS011;9498;51.862;19.460;2023-01-10T01:01:08;63.57;;;26.00;;
18738;SDS011;9498;51.862;19.460;2023-01-10T01:03:37;83.13;;;34.07;;
18738;SDS011;9498;51.862;19.460;2023-01-10T01:06:05;75.47;;;29.10;;
18738;SDS011;9498;51.862;19.460;2023-01-10T01:08:33;79.67;;;28.97;;
18738;SDS011;9498;51.862;19.460;2023-01-10T01:11:00;69.33;;;29.50;;
18738;SDS011;9498;51.862;19.460;2023-01-10T01:13:27;68.60;;;27.47;;
18738;SDS011;9498;51.862;19.460;2023-01-10T01:15:56;66.27;;;27.87;;
18738;SDS011;9498;51.862;19.460;2023-01-10T01:18:23;74.63;;;27.87;;
18738;SDS011;9498;51.862;19.460;2023-01-10T01:20:53;67.13;;;27.87;;
18738;SDS011;9498;51.862;19.460;2023-01-10T01:23:21;64.53;;;26.47;;
18738;SDS011;9498;51.862;19.460;2023-01-10T01:25:49;71.67;;;27.80;;
18738;SDS011;9498;51.862;19.460;2023-01-10T01:28:17;73.97;;;27.63;;
18738;SDS011;9498;51.862;19.460;2023-01-10T01:30:44;80.53;;;28.27;;
18738;SDS011;9498;51.862;19.460;2023-01-10T01:33:12;72.93;;;27.80;;
18738;SDS011;9498;51.862;19.460;2023-01-10T01:35:40;76.77;;;28.20;;
18738;SDS011;9498;51.862;19.460;2023-01-10T01:38:09;80.17;;;29.43;;
18738;SDS011;9498;51.862;19.460;2023-01-10T01:40:36;77.57;;;28.23;;
18738;SDS011;9498;51.862;19.460;2023-01-10T01:43:08;68.63;;;28.30;;
18738;SDS011;9498;51.862;19.460;2023-01-10T01:45:45;69.93;;;27.33;;
18738;SDS011;9498;51.862;19.460;2023-01-10T01:48:17;64.23;;;27.13;;
18738;SDS011;9498;51.862;19.460;2023-01-10T01:50:47;65.07;;;26.13;;
18738;SDS011;9498;51.862;19.460;2023-01-10T01:53:20;69.43;;;26.80;;
18738;SDS011;9498;51.862;19.460;2023-01-10T01:55:49;70.50;;;26.97;;
18738;SDS011;9498;51.862;19.460;2023-01-10T01:58:17;69.43;;;27.23;;
18738;SDS011;9498;51.862;19.460;2023-01-10T02:00:47;65.93;;;27.87;;
18738;SDS011;9498;51.862;19.460;2023-01-10T02:03:15;62.50;;;24.67;;
18738;SDS011;9498;51.862;19.460;2023-01-10T02:05:42;76.18;;;30.98;;
18738;SDS011;9498;51.862;19.460;2023-01-10T02:08:11;69.93;;;26.70;;
18738;SDS011;9498;51.862;19.460;2023-01-10T02:10:42;66.07;;;27.73;;
18738;SDS011;9498;51.862;19.460;2023-01-10T02:13:13;71.83;;;27.37;;
18738;SDS011;9498;51.862;19.460;2023-01-10T02:15:41;68.07;;;25.67;;
18738;SDS011;9498;51.862;19.460;2023-01-10T02:18:08;60.90;;;25.50;;
18738;SDS011;9498;51.862;19.460;2023-01-10T02:20:37;67.63;;;25.07;;
18738;SDS011;9498;51.862;19.460;2023-01-10T02:23:12;54.47;;;22.50;;
18738;SDS011;9498;51.862;19.460;2023-01-10T02:25:53;62.27;;;24.47;;
18738;SDS011;9498;51.862;19.460;2023-01-10T02:28:49;56.43;;;23.50;;
18738;SDS011;9498;51.862;19.460;2023-01-10T02:31:25;64.77;;;24.13;;
18738;SDS011;9498;51.862;19.460;2023-01-10T02:34:03;60.47;;;23.97;;
18738;SDS011;9498;51.862;19.460;2023-01-10T02:36:34;53.37;;;20.47;;
18738;SDS011;9498;51.862;19.460;2023-01-10T02:39:03;68.97;;;28.70;;
18738;SDS011;9498;51.862;19.460;2023-01-10T02:41:35;61.53;;;25.87;;
18738;SDS011;9498;51.862;19.460;2023-01-10T02:44:06;52.90;;;23.40;;
18738;SDS011;9498;51.862;19.460;2023-01-10T02:46:36;51.63;;;22.17;;
18738;SDS011;9498;51.862;19.460;2023-01-10T02:49:05;48.30;;;20.93;;
18738;SDS011;9498;51.862;19.460;2023-01-10T02:51:32;51.73;;;22.97;;
18738;SDS011;9498;51.862;19.460;2023-01-10T02:54:01;56.07;;;21.83;;
18738;SDS011;9498;51.862;19.460;2023-01-10T02:56:35;53.80;;;22.60;;
18738;SDS011;9498;51.862;19.460;2023-01-10T02:59:19;51.53;;;21.43;;
18738;SDS011;9498;51.862;19.460;2023-01-10T03:01:50;53.20;;;20.33;;
18738;SDS011;9498;51.862;19.460;2023-01-10T03:04:23;51.07;;;20.93;;
18738;SDS011;9498;51.862;19.460;2023-01-10T03:06:58;54.03;;;22.90;;
18738;SDS011;9498;51.862;19.460;2023-01-10T03:09:31;71.73;;;21.57;;
18738;SDS011;9498;51.862;19.460;2023-01-10T03:12:00;57.07;;;21.93;;
18738;SDS011;9498;51.862;19.460;2023-01-10T03:14:28;56.30;;;21.70;;
18738;SDS011;9498;51.862;19.460;2023-01-10T03:16:58;51.90;;;21.50;;
18738;SDS011;9498;51.862;19.460;2023-01-10T03:19:28;50.00;;;19.90;;
18738;SDS011;9498;51.862;19.460;2023-01-10T03:21:58;52.87;;;21.03;;
18738;SDS011;9498;51.862;19.460;2023-01-10T03:24:29;52.47;;;21.20;;
18738;SDS011;9498;51.862;19.460;2023-01-10T03:26:57;57.83;;;22.33;;
18738;SDS011;9498;51.862;19.460;2023-01-10T03:29:28;59.87;;;23.23;;
18738;SDS011;9498;51.862;19.460;2023-01-10T03:31:57;59.43;;;25.23;;
18738;SDS011;9498;51.862;19.460;2023-01-10T03:34:27;67.80;;;24.53;;
18738;SDS011;9498;51.862;19.460;2023-01-10T03:36:57;59.63;;;24.17;;
18738;SDS011;9498;51.862;19.460;2023-01-10T03:39:29;47.73;;;20.70;;
18738;SDS011;9498;51.862;19.460;2023-01-10T03:41:59;69.60;;;27.30;;
18738;SDS011;9498;51.862;19.460;2023-01-10T03:44:30;69.93;;;28.17;;
18738;SDS011;9498;51.862;19.460;2023-01-10T03:47:09;63.70;;;26.87;;
18738;SDS011;9498;51.862;19.460;2023-01-10T03:49:41;63.80;;;26.27;;
18738;SDS011;9498;51.862;19.460;2023-01-10T03:52:12;67.87;;;25.97;;
18738;SDS011;9498;51.862;19.460;2023-01-10T03:54:41;60.73;;;25.57;;
18738;SDS011;9498;51.862;19.460;2023-01-10T03:57:11;68.73;;;27.00;;
18738;SDS011;9498;51.862;19.460;2023-01-10T03:59:41;68.73;;;25.20;;
18738;SDS011;9498;51.862;19.460;2023-01-10T04:02:08;68.13;;;25.63;;
18738;SDS011;9498;51.862;19.460;2023-01-10T04:04:35;61.93;;;24.83;;
18738;SDS011;9498;51.862;19.460;2023-01-10T04:07:04;67.33;;;26.00;;
18738;SDS011;9498;51.862;19.460;2023-01-10T04:09:31;74.63;;;27.50;;
18738;SDS011;9498;51.862;19.460;2023-01-10T04:11:59;76.57;;;26.80;;
18738;SDS011;9498;51.862;19.460;2023-01-10T04:14:27;82.88;;;33.47;;
18738;SDS011;9498;51.862;19.460;2023-01-10T04:16:56;67.60;;;28.87;;
18738;SDS011;9498;51.862;19.460;2023-01-10T04:19:24;68.53;;;26.57;;
18738;SDS011;9498;51.862;19.460;2023-01-10T04:21:52;60.67;;;24.53;;
18738;SDS011;9498;51.862;19.460;2023-01-10T04:24:20;64.30;;;26.63;;
18738;SDS011;9498;51.862;19.460;2023-01-10T04:26:48;71.80;;;28.40;;
18738;SDS011;9498;51.862;19.460;2023-01-10T04:29:15;65.77;;;27.20;;
18738;SDS011;9498;51.862;19.460;2023-01-10T04:31:42;67.93;;;26.03;;
18738;SDS011;9498;51.862;19.460;2023-01-10T04:34:10;61.53;;;24.87;;
18738;SDS011;9498;51.862;19.460;2023-01-10T04:36:37;63.40;;;25.23;;
18738;SDS011;9498;51.862;19.460;2023-01-10T04:39:04;66.10;;;25.73;;
18738;SDS011;9498;51.862;19.460;2023-01-10T04:41:33;79.37;;;27.77;;
18738;SDS011;9498;51.862;19.460;2023-01-10T04:44:00;70.53;;;26.53;;
18738;SDS011;9498;51.862;19.460;2023-01-10T04:46:28;73.73;;;27.80;;
18738;SDS011;9498;51.862;19.460;2023-01-10T04:48:55;67.23;;;25.77;;
18738;SDS011;9498;51.862;19.460;2023-01-10T04:51:23;75.47;;;28.97;;
18738;SDS011;9498;51.862;19.460;2023-01-10T04:53:50;80.07;;;28.40;;
18738;SDS011;9498;51.862;19.460;2023-01-10T04:56:18;86.83;;;29.30;;
18738;SDS011;9498;51.862;19.460;2023-01-10T04:58:47;98.67;;;30.37;;
18738;SDS011;9498;51.862;19.460;2023-01-10T05:01:15;93.73;;;30.27;;
18738;SDS011;9498;51.862;19.460;2023-01-10T05:03:45;88.27;;;30.23;;
18738;SDS011;9498;51.862;19.460;2023-01-10T05:06:13;83.37;;;28.83;;
18738;SDS011;9498;51.862;19.460;2023-01-10T05:08:40;78.97;;;28.50;;
18738;SDS011;9498;51.862;19.460;2023-01-10T05:11:07;84.03;;;28.27;;
18738;SDS011;9498;51.862;19.460;2023-01-10T05:13:35;82.97;;;29.60;;
18738;SDS011;9498;51.862;19.460;2023-01-10T05:16:04;85.53;;;28.47;;
18738;SDS011;9498;51.862;19.460;2023-01-10T05:18:31;108.32;;;35.88;;
18738;SDS011;9498;51.862;19.460;2023-01-10T05:20:59;87.53;;;32.53;;
18738;SDS011;9498;51.862;19.460;2023-01-10T05:23:26;110.77;;;36.20;;
18738;SDS011;9498;51.862;19.460;2023-01-10T05:25:54;95.70;;;33.57;;
18738;SDS011;9498;51.862;19.460;2023-01-10T05:28:21;133.82;;;43.78;;
18738;SDS011;9498;51.862;19.460;2023-01-10T05:30:49;112.60;;;36.93;;
18738;SDS011;9498;51.862;19.460;2023-01-10T05:33:22;98.87;;;32.03;;
18738;SDS011;9498;51.862;19.460;2023-01-10T05:35:49;108.13;;;33.60;;
18738;SDS011;9498;51.862;19.460;2023-01-10T05:38:16;115.07;;;34.43;;
18738;SDS011;9498;51.862;19.460;2023-01-10T05:40:44;111.97;;;33.77;;
18738;SDS011;9498;51.862;19.460;2023-01-10T05:43:14;118.37;;;33.23;;
18738;SDS011;9498;51.862;19.460;2023-01-10T05:45:41;142.07;;;39.47;;
18738;SDS011;9498;51.862;19.460;2023-01-10T05:48:09;136.13;;;39.03;;
18738;SDS011;9498;51.862;19.460;2023-01-10T05:50:38;181.70;;;53.50;;
18738;SDS011;9498;51.862;19.460;2023-01-10T05:53:05;145.37;;;41.37;;
18738;SDS011;9498;51.862;19.460;2023-01-10T05:55:32;218.17;;;50.77;;
18738;SDS011;9498;51.862;19.460;2023-01-10T05:58:00;132.53;;;38.77;;
18738;SDS011;9498;51.862;19.460;2023-01-10T06:00:27;117.55;;;39.38;;
18738;SDS011;9498;51.862;19.460;2023-01-10T06:02:55;128.90;;;37.93;;
18738;SDS011;9498;51.862;19.460;2023-01-10T06:05:22;98.77;;;32.17;;
18738;SDS011;9498;51.862;19.460;2023-01-10T06:07:51;98.00;;;30.43;;
18738;SDS011;9498;51.862;19.460;2023-01-10T06:10:20;92.53;;;28.80;;
18738;SDS011;9498;51.862;19.460;2023-01-10T06:12:47;92.13;;;31.40;;
18738;SDS011;9498;51.862;19.460;2023-01-10T06:15:14;90.03;;;28.40;;
18738;SDS011;9498;51.862;19.460;2023-01-10T06:17:42;91.30;;;28.13;;
18738;SDS011;9498;51.862;19.460;2023-01-10T06:20:11;87.37;;;28.30;;
18738;SDS011;9498;51.862;19.460;2023-01-10T06:22:39;96.87;;;29.70;;
18738;SDS011;9498;51.862;19.460;2023-01-10T06:25:09;81.70;;;27.10;;
18738;SDS011;9498;51.862;19.460;2023-01-10T06:27:37;73.27;;;25.93;;
18738;SDS011;9498;51.862;19.460;2023-01-10T06:30:05;87.10;;;27.90;;
18738;SDS011;9498;51.862;19.460;2023-01-10T06:32:32;89.33;;;27.17;;
18738;SDS011;9498;51.862;19.460;2023-01-10T06:34:59;93.67;;;28.47;;
18738;SDS011;9498;51.862;19.460;2023-01-10T06:37:27;91.73;;;28.20;;
18738;SDS011;9498;51.862;19.460;2023-01-10T06:39:54;103.87;;;31.03;;
18738;SDS011;9498;51.862;19.460;2023-01-10T06:42:23;132.80;;;36.73;;
18738;SDS011;9498;51.862;19.460;2023-01-10T06:44:50;114.70;;;35.60;;
18738;SDS011;9498;51.862;19.460;2023-01-10T06:47:18;142.57;;;37.77;;
18738;SDS011;9498;51.862;19.460;2023-01-10T06:49:45;131.03;;;35.63;;
18738;SDS011;9498;51.862;19.460;2023-01-10T06:52:12;119.73;;;35.67;;
18738;SDS011;9498;51.862;19.460;2023-01-10T06:54:40;126.23;;;37.50;;
18738;SDS011;9498;51.862;19.460;2023-01-10T06:57:07;112.23;;;33.10;;
18738;SDS011;9498;51.862;19.460;2023-01-10T06:59:36;96.30;;;30.37;;
18738;SDS011;9498;51.862;19.460;2023-01-10T07:02:03;114.90;;;31.50;;
18738;SDS011;9498;51.862;19.460;2023-01-10T07:04:30;116.43;;;34.57;;
18738;SDS011;9498;51.862;19.460;2023-01-10T07:06:58;114.87;;;31.43;;
18738;SDS011;9498;51.862;19.460;2023-01-10T07:09:25;120.10;;;33.63;;
18738;SDS011;9498;51.862;19.460;2023-01-10T07:11:52;124.30;;;34.87;;
18738;SDS011;9498;51.862;19.460;2023-01-10T07:14:20;105.87;;;31.57;;
18738;SDS011;9498;51.862;19.460;2023-01-10T07:16:48;100.13;;;29.13;;
18738;SDS011;9498;51.862;19.460;2023-01-10T07:19:16;97.47;;;30.73;;
18738;SDS011;9498;51.862;19.460;2023-01-10T07:21:44;94.77;;;27.33;;
18738;SDS011;9498;51.862;19.460;2023-01-10T07:24:11;87.50;;;27.00;;
18738;SDS011;9498;51.862;19.460;2023-01-10T07:26:39;96.13;;;30.37;;
18738;SDS011;9498;51.862;19.460;2023-01-10T07:29:06;90.67;;;30.77;;
18738;SDS011;9498;51.862;19.460;2023-01-10T07:31:33;96.33;;;31.97;;
18738;SDS011;9498;51.862;19.460;2023-01-10T07:34:02;91.00;;;32.00;;
18738;SDS011;9498;51.862;19.460;2023-01-10T07:36:29;108.23;;;33.07;;
18738;SDS011;9498;51.862;19.460;2023-01-10T07:38:57;100.13;;;31.93;;
18738;SDS011;9498;51.862;19.460;2023-01-10T07:41:24;98.37;;;30.17;;
18738;SDS011;9498;51.862;19.460;2023-01-10T07:43:51;106.53;;;32.80;;
18738;SDS011;9498;51.862;19.460;2023-01-10T07:46:19;128.43;;;37.53;;
18738;SDS011;9498;51.862;19.460;2023-01-10T07:48:46;128.77;;;38.80;;
18738;SDS011;9498;51.862;19.460;2023-01-10T07:51:15;126.93;;;39.77;;
18738;SDS011;9498;51.862;19.460;2023-01-10T07:53:42;154.13;;;45.27;;
18738;SDS011;9498;51.862;19.460;2023-01-10T07:56:09;206.10;;;53.40;;
18738;SDS011;9498;51.862;19.460;2023-01-10T07:58:37;181.00;;;51.57;;
18738;SDS011;9498;51.862;19.460;2023-01-10T08:01:04;181.87;;;52.50;;
18738;SDS011;9498;51.862;19.460;2023-01-10T08:03:32;172.97;;;50.13;;
18738;SDS011;9498;51.862;19.460;2023-01-10T08:06:00;152.90;;;46.83;;
18738;SDS011;9498;51.862;19.460;2023-01-10T08:08:29;155.90;;;47.23;;
18738;SDS011;9498;51.862;19.460;2023-01-10T08:10:56;170.90;;;45.03;;
18738;SDS011;9498;51.862;19.460;2023-01-10T08:13:26;159.23;;;45.63;;
18738;SDS011;9498;51.862;19.460;2023-01-10T08:15:54;182.90;;;49.20;;
18738;SDS011;9498;51.862;19.460;2023-01-10T08:18:21;172.73;;;48.00;;
18738;SDS011;9498;51.862;19.460;2023-01-10T08:20:49;167.73;;;48.20;;
18738;SDS011;9498;51.862;19.460;2023-01-10T08:23:17;165.60;;;49.97;;
18738;SDS011;9498;51.862;19.460;2023-01-10T08:25:46;160.27;;;48.20;;
18738;SDS011;9498;51.862;19.460;2023-01-10T08:28:15;157.93;;;47.43;;
18738;SDS011;9498;51.862;19.460;2023-01-10T08:30:42;156.77;;;45.43;;
18738;SDS011;9498;51.862;19.460;2023-01-10T08:33:10;117.73;;;37.30;;
18738;SDS011;9498;51.862;19.460;2023-01-10T08:35:37;136.97;;;42.50;;
18738;SDS011;9498;51.862;19.460;2023-01-10T08:38:04;141.30;;;44.37;;
18738;SDS011;9498;51.862;19.460;2023-01-10T08:40:32;119.33;;;40.60;;
18738;SDS011;9498;51.862;19.460;2023-01-10T08:43:01;114.43;;;38.90;;
18738;SDS011;9498;51.862;19.460;2023-01-10T08:45:29;103.27;;;37.23;;
18738;SDS011;9498;51.862;19.460;2023-01-10T08:47:56;109.80;;;38.43;;
18738;SDS011;9498;51.862;19.460;2023-01-10T08:50:24;118.20;;;38.93;;
18738;SDS011;9498;51.862;19.460;2023-01-10T08:52:51;113.73;;;37.73;;
18738;SDS011;9498;51.862;19.460;2023-01-10T08:55:19;105.20;;;36.90;;
18738;SDS011;9498;51.862;19.460;2023-01-10T08:57:46;108.27;;;35.53;;
18738;SDS011;9498;51.862;19.460;2023-01-10T09:00:15;98.90;;;32.87;;
18738;SDS011;9498;51.862;19.460;2023-01-10T09:02:43;100.63;;;34.77;;
18738;SDS011;9498;51.862;19.460;2023-01-10T09:05:10;91.50;;;31.53;;
18738;SDS011;9498;51.862;19.460;2023-01-10T09:07:38;80.37;;;30.00;;
18738;SDS011;9498;51.862;19.460;2023-01-10T09:10:06;82.93;;;29.10;;
18738;SDS011;9498;51.862;19.460;2023-01-10T09:12:34;86.97;;;29.50;;
18738;SDS011;9498;51.862;19.460;2023-01-10T09:15:21;82.43;;;27.97;;
18738;SDS011;9498;51.862;19.460;2023-01-10T09:17:48;78.57;;;27.00;;
18738;SDS011;9498;51.862;19.460;2023-01-10T09:20:19;77.63;;;26.33;;
18738;SDS011;9498;51.862;19.460;2023-01-10T09:22:46;77.20;;;25.63;;
18738;SDS011;9498;51.862;19.460;2023-01-10T09:25:13;72.53;;;25.57;;
18738;SDS011;9498;51.862;19.460;2023-01-10T09:27:41;80.53;;;26.37;;
18738;SDS011;9498;51.862;19.460;2023-01-10T09:30:09;71.50;;;25.17;;
18738;SDS011;9498;51.862;19.460;2023-01-10T09:32:37;78.87;;;25.73;;
18738;SDS011;9498;51.862;19.460;2023-01-10T09:35:05;76.90;;;27.23;;
18738;SDS011;9498;51.862;19.460;2023-01-10T09:37:32;73.33;;;25.77;;
18738;SDS011;9498;51.862;19.460;2023-01-10T09:40:02;78.13;;;27.70;;
18738;SDS011;9498;51.862;19.460;2023-01-10T09:42:34;83.30;;;27.33;;
18738;SDS011;9498;51.862;19.460;2023-01-10T09:45:05;78.30;;;26.40;;
18738;SDS011;9498;51.862;19.460;2023-01-10T09:47:40;76.77;;;26.83;;
18738;SDS011;9498;51.862;19.460;2023-01-10T09:50:11;78.60;;;26.73;;
18738;SDS011;9498;51.862;19.460;2023-01-10T09:52:43;80.07;;;27.33;;
18738;SDS011;9498;51.862;19.460;2023-01-10T09:55:16;76.13;;;29.00;;
18738;SDS011;9498;51.862;19.460;2023-01-10T09:57:44;84.13;;;28.80;;
18738;SDS011;9498;51.862;19.460;2023-01-10T10:00:14;86.23;;;28.63;;
18738;SDS011;9498;51.862;19.460;2023-01-10T10:02:44;99.80;;;30.30;;
18738;SDS011;9498;51.862;19.460;2023-01-10T10:05:15;86.20;;;31.40;;
18738;SDS011;9498;51.862;19.460;2023-01-10T10:07:44;91.40;;;30.13;;
18738;SDS011;9498;51.862;19.460;2023-01-10T10:10:14;83.97;;;30.63;;
18738;SDS011;9498;51.862;19.460;2023-01-10T10:12:43;91.67;;;31.13;;
18738;SDS011;9498;51.862;19.460;2023-01-10T10:15:17;94.60;;;32.07;;
18738;SDS011;9498;51.862;19.460;2023-01-10T10:17:50;103.77;;;34.43;;
18738;SDS011;9498;51.862;19.460;2023-01-10T10:20:22;90.27;;;32.03;;
18738;SDS011;9498;51.862;19.460;2023-01-10T10:22:55;103.20;;;33.87;;
18738;SDS011;9498;51.862;19.460;2023-01-10T10:25:30;100.77;;;33.30;;
18738;SDS011;9498;51.862;19.460;2023-01-10T10:28:04;108.53;;;33.63;;
18738;SDS011;9498;51.862;19.460;2023-01-10T10:30:38;110.03;;;35.50;;
18738;SDS011;9498;51.862;19.460;2023-01-10T10:33:24;108.13;;;37.07;;
18738;SDS011;9498;51.862;19.460;2023-01-10T10:35:54;105.13;;;34.20;;
18738;SDS011;9498;51.862;19.460;2023-01-10T10:38:24;114.67;;;37.10;;
18738;SDS011;9498;51.862;19.460;2023-01-10T10:40:54;113.33;;;37.10;;
18738;SDS011;9498;51.862;19.460;2023-01-10T10:43:24;105.73;;;36.13;;
18738;SDS011;9498;51.862;19.460;2023-01-10T10:45:53;103.67;;;34.97;;
18738;SDS011;9498;51.862;19.460;2023-01-10T10:48:24;119.77;;;39.77;;
18738;SDS011;9498;51.862;19.460;2023-01-10T10:50:55;119.97;;;39.77;;
18738;SDS011;9498;51.862;19.460;2023-01-10T10:53:26;106.83;;;37.73;;
18738;SDS011;9498;51.862;19.460;2023-01-10T10:55:53;106.03;;;36.27;;
18738;SDS011;9498;51.862;19.460;2023-01-10T10:58:21;111.67;;;38.17;;
18738;SDS011;9498;51.862;19.460;2023-01-10T11:00:50;110.60;;;38.10;;
18738;SDS011;9498;51.862;19.460;2023-01-10T11:03:23;106.53;;;37.50;;
18738;SDS011;9498;51.862;19.460;2023-01-10T11:05:52;110.53;;;38.30;;
18738;SDS011;9498;51.862;19.460;2023-01-10T11:08:20;104.30;;;38.03;;
18738;SDS011;9498;51.862;19.460;2023-01-10T11:10:49;106.77;;;37.70;;
18738;SDS011;9498;51.862;19.460;2023-01-10T11:13:19;107.03;;;38.23;;
18738;SDS011;9498;51.862;19.460;2023-01-10T11:15:49;108.50;;;38.20;;
18738;SDS011;9498;51.862;19.460;2023-01-10T11:18:17;97.50;;;36.33;;
18738;SDS011;9498;51.862;19.460;2023-01-10T11:20:46;101.93;;;37.93;;
18738;SDS011;9498;51.862;19.460;2023-01-10T11:23:24;110.10;;;37.53;;
18738;SDS011;9498;51.862;19.460;2023-01-10T11:25:54;106.13;;;38.00;;
18738;SDS011;9498;51.862;19.460;2023-01-10T11:28:30;103.90;;;38.60;;
18738;SDS011;9498;51.862;19.460;2023-01-10T11:30:58;96.37;;;34.97;;
18738;SDS011;9498;51.862;19.460;2023-01-10T11:33:27;103.37;;;36.10;;
18738;SDS011;9498;51.862;19.460;2023-01-10T11:35:56;89.23;;;34.00;;
18738;SDS011;9498;51.862;19.460;2023-01-10T11:38:25;93.37;;;34.33;;
18738;SDS011;9498;51.862;19.460;2023-01-10T11:40:55;82.13;;;32.87;;
18738;SDS011;9498;51.862;19.460;2023-01-10T11:43:24;84.90;;;32.57;;
18738;SDS011;9498;51.862;19.460;2023-01-10T11:45:52;88.13;;;33.63;;
18738;SDS011;9498;51.862;19.460;2023-01-10T11:48:20;97.00;;;34.27;;
18738;SDS011;9498;51.862;19.460;2023-01-10T11:50:49;96.17;;;37.23;;
18738;SDS011;9498;51.862;19.460;2023-01-10T11:53:30;92.83;;;34.73;;
18738;SDS011;9498;51.862;19.460;2023-01-10T11:55:58;91.07;;;36.33;;
18738;SDS011;9498;51.862;19.460;2023-01-10T11:58:28;100.20;;;35.63;;
18738;SDS011;9498;51.862;19.460;2023-01-10T12:00:56;93.17;;;34.97;;
18738;SDS011;9498;51.862;19.460;2023-01-10T12:03:24;94.23;;;35.20;;
18738;SDS011;9498;51.862;19.460;2023-01-10T12:05:54;89.83;;;34.30;;
18738;SDS011;9498;51.862;19.460;2023-01-10T12:08:23;87.93;;;35.20;;
18738;SDS011;9498;51.862;19.460;2023-01-10T12:10:56;92.97;;;34.70;;
18738;SDS011;9498;51.862;19.460;2023-01-10T12:13:26;101.53;;;35.70;;
18738;SDS011;9498;51.862;19.460;2023-01-10T12:16:03;82.10;;;31.57;;
18738;SDS011;9498;51.862;19.460;2023-01-10T12:18:40;92.93;;;34.20;;
18738;SDS011;9498;51.862;19.460;2023-01-10T12:21:07;93.27;;;35.10;;
18738;SDS011;9498;51.862;19.460;2023-01-10T12:23:35;95.07;;;35.87;;
18738;SDS011;9498;51.862;19.460;2023-01-10T12:26:07;94.10;;;35.17;;
18738;SDS011;9498;51.862;19.460;2023-01-10T12:28:37;107.63;;;37.83;;
18738;SDS011;9498;51.862;19.460;2023-01-10T12:31:06;91.77;;;36.60;;
18738;SDS011;9498;51.862;19.460;2023-01-10T12:33:39;102.30;;;37.50;;
18738;SDS011;9498;51.862;19.460;2023-01-10T12:36:11;112.47;;;38.93;;
18738;SDS011;9498;51.862;19.460;2023-01-10T12:38:40;106.27;;;39.33;;
18738;SDS011;9498;51.862;19.460;2023-01-10T12:41:29;113.90;;;40.03;;
18738;SDS011;9498;51.862;19.460;2023-01-10T12:44:19;111.00;;;39.70;;
18738;SDS011;9498;51.862;19.460;2023-01-10T12:46:48;102.13;;;37.93;;
18738;SDS011;9498;51.862;19.460;2023-01-10T12:49:17;106.90;;;39.33;;
18738;SDS011;9498;51.862;19.460;2023-01-10T12:51:46;107.43;;;39.07;;
18738;SDS011;9498;51.862;19.460;2023-01-10T12:54:17;112.40;;;39.97;;
18738;SDS011;9498;51.862;19.460;2023-01-10T12:56:47;112.63;;;39.23;;
18738;SDS011;9498;51.862;19.460;2023-01-10T12:59:16;98.37;;;36.80;;
18738;SDS011;9498;51.862;19.460;2023-01-10T13:01:44;103.87;;;38.60;;
18738;SDS011;9498;51.862;19.460;2023-01-10T13:04:17;97.23;;;37.37;;
18738;SDS011;9498;51.862;19.460;2023-01-10T13:06:46;101.13;;;38.13;;
18738;SDS011;9498;51.862;19.460;2023-01-10T13:09:15;108.57;;;37.60;;
18738;SDS011;9498;51.862;19.460;2023-01-10T13:11:44;99.87;;;37.30;;
18738;SDS011;9498;51.862;19.460;2023-01-10T13:14:15;103.07;;;36.77;;
18738;SDS011;9498;51.862;19.460;2023-01-10T13:16:44;104.47;;;38.70;;
18738;SDS011;9498;51.862;19.460;2023-01-10T13:19:24;98.90;;;37.30;;
18738;SDS011;9498;51.862;19.460;2023-01-10T13:24:33;106.70;;;40.23;;
18738;SDS011;9498;51.862;19.460;2023-01-10T13:27:01;104.60;;;37.37;;
18738;SDS011;9498;51.862;19.460;2023-01-10T13:29:36;119.53;;;43.23;;
18738;SDS011;9498;51.862;19.460;2023-01-10T13:32:14;119.57;;;42.63;;
18738;SDS011;9498;51.862;19.460;2023-01-10T13:34:44;118.83;;;42.43;;
18738;SDS011;9498;51.862;19.460;2023-01-10T13:37:12;108.70;;;41.27;;
18738;SDS011;9498;51.862;19.460;2023-01-10T13:39:49;125.93;;;44.13;;
18738;SDS011;9498;51.862;19.460;2023-01-10T13:42:25;107.17;;;40.97;;
18738;SDS011;9498;51.862;19.460;2023-01-10T13:45:19;112.97;;;44.13;;
18738;SDS011;9498;51.862;19.460;2023-01-10T13:48:00;100.03;;;37.13;;
18738;SDS011;9498;51.862;19.460;2023-01-10T13:50:44;94.47;;;36.43;;
18738;SDS011;9498;51.862;19.460;2023-01-10T13:58:50;93.20;;;36.17;;
18738;SDS011;9498;51.862;19.460;2023-01-10T14:01:36;80.10;;;32.93;;
18738;SDS011;9498;51.862;19.460;2023-01-10T14:04:21;87.23;;;33.47;;
18738;SDS011;9498;51.862;19.460;2023-01-10T14:06:50;90.43;;;33.20;;
18738;SDS011;9498;51.862;19.460;2023-01-10T14:09:29;87.43;;;32.90;;
18738;SDS011;9498;51.862;19.460;2023-01-10T14:11:57;89.97;;;32.87;;
18738;SDS011;9498;51.862;19.460;2023-01-10T14:14:26;96.97;;;38.70;;
18738;SDS011;9498;51.862;19.460;2023-01-10T14:16:56;86.97;;;33.70;;
18738;SDS011;9498;51.862;19.460;2023-01-10T14:19:26;84.10;;;33.60;;
18738;SDS011;9498;51.862;19.460;2023-01-10T14:21:55;89.97;;;34.30;;
18738;SDS011;9498;51.862;19.460;2023-01-10T14:24:24;86.03;;;33.93;;
18738;SDS011;9498;51.862;19.460;2023-01-10T14:26:52;93.33;;;35.27;;
18738;SDS011;9498;51.862;19.460;2023-01-10T14:29:20;87.53;;;34.23;;
18738;SDS011;9498;51.862;19.460;2023-01-10T14:31:48;89.73;;;34.73;;
18738;SDS011;9498;51.862;19.460;2023-01-10T14:34:20;84.67;;;33.83;;
18738;SDS011;9498;51.862;19.460;2023-01-10T14:36:48;90.80;;;33.80;;
18738;SDS011;9498;51.862;19.460;2023-01-10T14:39:17;89.10;;;32.83;;